Time;durP1;ratioP1;P1;durP2;ratioP2;P2;SDS_P1;SDS_P2;PMS_P1;PMS_P2;Temp;Humidity;BMP_temperature;BMP_pressure;BME280_temperature;BME280_humidity;BME280_pressure;Samples;Min_cycle;Max_cycle;Signal;HPM_P1;HPM_P2
2022/07/28 00:02:07;;;;;;;;;1.00;1.00;;;;;21.46;36.88;100943.63;4863532;29;46331;-62
2022/07/28 00:04:33;;;;;;;;;2.00;2.00;;;;;21.41;37.05;100929.72;4863551;29;45445;-64
2022/07/28 00:06:58;;;;;;;;;2.25;2.25;;;;;21.30;36.78;100905.72;4848113;29;45441;-63
2022/07/28 00:09:24;;;;;;;;;1.00;1.00;;;;;21.46;36.90;100943.63;4864174;29;45323;-62
2022/07/28 00:11:49;;;;;;;;;1.25;1.25;;;;;21.35;36.85;100920.50;4847888;29;47545;-63
2022/07/28 00:14:15;;;;;;;;;1.75;1.75;;;;;21.40;36.99;100916.88;4818930;29;45324;-63
2022/07/28 00:16:40;;;;;;;;;1.25;1.25;;;;;21.63;37.03;100934.13;4850376;29;45277;-61
2022/07/28 00:19:06;;;;;;;;;3.00;2.00;;;;;21.68;36.80;100953.69;4848142;29;45417;-64
2022/07/28 00:21:31;;;;;;;;;2.00;2.00;;;;;21.73;36.76;100953.72;4880441;29;46194;-62
2022/07/28 00:23:57;;;;;;;;;2.00;2.00;;;;;21.74;36.70;100935.81;4863629;29;45410;-63
2022/07/28 00:26:22;;;;;;;;;2.25;2.25;;;;;21.75;36.82;100940.28;4863943;29;45337;-62
2022/07/28 00:28:48;;;;;;;;;3.00;3.00;;;;;21.75;36.65;100933.84;4880572;29;45396;-63
2022/07/28 00:31:13;;;;;;;;;3.00;2.00;;;;;21.47;36.77;100900.66;4863270;29;45598;-63
2022/07/28 00:33:39;;;;;;;;;3.00;3.00;;;;;21.60;36.99;100929.13;4863449;29;45397;-62
2022/07/28 00:36:06;;;;;;;;;1.25;1.25;;;;;21.50;37.15;100919.63;4848395;29;45574;-62
2022/07/28 00:38:31;;;;;;;;;2.00;2.00;;;;;21.54;37.10;100922.69;4881273;29;45604;-64
2022/07/28 00:41:12;;;;;;;;;2.80;2.80;;;;;21.61;37.19;100916.84;4883277;29;45530;-63
2022/07/28 00:43:39;;;;;;;;;5.20;5.20;;;;;21.60;36.94;100917.97;4868619;29;45399;-63
2022/07/28 00:46:05;;;;;;;;;3.00;3.00;;;;;21.58;37.25;100911.81;4851535;29;45451;-63
2022/07/28 00:48:30;;;;;;;;;1.25;1.25;;;;;21.44;37.03;100876.09;4866576;29;45759;-62
2022/07/28 00:50:56;;;;;;;;;3.00;1.00;;;;;21.56;37.04;100909.28;4850773;29;46910;-63
2022/07/28 00:53:22;;;;;;;;;3.25;3.25;;;;;21.44;37.29;100895.63;4865949;29;45314;-62
2022/07/28 00:55:47;;;;;;;;;2.25;2.00;;;;;21.56;37.60;100902.88;4865970;29;45470;-63
2022/07/28 00:58:13;;;;;;;;;1.00;1.00;;;;;21.37;37.06;100875.56;4850765;29;45428;-62
2022/07/28 01:00:38;;;;;;;;;3.00;2.00;;;;;21.40;37.17;100881.41;4866204;29;45470;-59
2022/07/28 01:03:04;;;;;;;;;2.00;2.00;;;;;21.48;37.09;100895.91;4882752;29;45391;-61
2022/07/28 01:05:44;;;;;;;;;2.25;2.25;;;;;21.53;37.27;100893.97;4866039;29;45389;-62
2022/07/28 01:08:15;;;;;;;;;1.80;1.00;;;;;21.56;37.07;100895.31;4865956;29;45376;-62
2022/07/28 01:11:19;;;;;;;;;1.00;1.00;;;;;21.51;37.20;100896.19;4865731;29;45935;-61
2022/07/28 01:13:54;;;;;;;;;3.40;3.40;;;;;21.53;37.47;100891.16;4881891;29;45212;-61
2022/07/28 01:16:19;;;;;;;;;3.00;3.00;;;;;21.33;37.13;100857.69;4882673;29;45368;-62
2022/07/28 01:18:48;;;;;;;;;2.25;2.25;;;;;21.00;37.32;100802.22;4847237;29;45505;-63
2022/07/28 01:21:15;;;;;;;;;3.00;3.00;;;;;21.47;37.41;100883.06;4847249;29;47131;-62
2022/07/28 01:24:20;;;;;;;;;2.60;2.00;;;;;21.51;37.45;100887.81;4847129;29;45429;-62
2022/07/28 01:26:56;;;;;;;;;2.00;2.00;;;;;21.40;37.29;100891.75;4847271;29;45260;-62
2022/07/28 01:29:43;;;;;;;;;3.20;1.00;;;;;21.41;37.30;100896.22;4848467;29;45948;-62
2022/07/28 01:32:24;;;;;;;;;3.00;2.00;;;;;21.42;37.51;100885.88;4863558;29;46246;-61
2022/07/28 01:35:14;;;;;;;;;2.40;2.00;;;;;21.44;37.70;100890.06;4831998;29;45400;-63
2022/07/28 01:37:44;;;;;;;;;1.60;1.40;;;;;21.29;37.42;100862.19;4863724;29;45348;-61
2022/07/28 01:40:11;;;;;;;;;2.60;2.60;;;;;21.38;37.79;100886.44;4862469;29;45373;-62
2022/07/28 01:42:39;;;;;;;;;1.40;1.40;;;;;21.40;37.74;100877.78;4831545;29;46827;-62
2022/07/28 01:45:06;;;;;;;;;3.00;1.40;;;;;21.30;37.70;100878.66;4831539;29;45389;-62
2022/07/28 01:47:32;;;;;;;;;1.00;1.00;;;;;21.40;37.73;100883.38;4847294;29;45346;-61
2022/07/28 01:50:00;;;;;;;;;1.00;1.00;;;;;21.43;37.63;100882.81;4863520;29;45617;-63
2022/07/28 01:52:25;;;;;;;;;1.20;1.20;;;;;21.34;37.71;100874.16;4863429;29;46089;-62
2022/07/28 01:54:52;;;;;;;;;1.50;1.50;;;;;21.39;37.79;100888.13;4831577;29;45383;-62
2022/07/28 01:57:17;;;;;;;;;1.80;1.80;;;;;21.26;37.83;100877.53;4832159;29;45420;-63
2022/07/28 01:59:43;;;;;;;;;1.00;1.00;;;;;21.25;37.88;100865.50;4831614;29;45426;-62
2022/07/28 02:02:08;;;;;;;;;1.75;1.75;;;;;21.23;37.96;100878.06;4823266;28;46530;-60
2022/07/28 02:04:35;;;;;;;;;1.75;1.75;;;;;21.26;38.00;100872.78;4847656;29;45392;-62
2022/07/28 02:07:00;;;;;;;;;0.60;0.60;;;;;21.22;37.71;100866.09;4849733;29;45415;-63
2022/07/28 02:09:26;;;;;;;;;2.25;1.00;;;;;21.18;38.01;100875.31;4865395;29;45339;-62
2022/07/28 02:11:52;;;;;;;;;1.00;1.00;;;;;21.14;38.11;100869.47;4849598;29;47230;-63
2022/07/28 02:14:22;;;;;;;;;1.60;1.60;;;;;21.09;38.17;100850.75;4834208;29;45865;-63
2022/07/28 02:16:50;;;;;;;;;2.00;2.00;;;;;21.12;38.25;100854.94;4881929;29;45409;-62
2022/07/28 02:19:16;;;;;;;;;1.00;1.00;;;;;21.19;38.09;100849.88;4865215;29;45328;-62
2022/07/28 02:21:42;;;;;;;;;1.00;1.00;;;;;21.00;38.56;100821.75;4849283;29;45800;-62
2022/07/28 02:24:08;;;;;;;;;2.25;1.00;;;;;21.15;38.12;100847.94;4864716;29;45446;-63
2022/07/28 02:26:35;;;;;;;;;1.00;1.00;;;;;21.05;38.02;100815.31;4881700;29;45404;-62
2022/07/28 02:29:02;;;;;;;;;1.00;1.00;;;;;21.04;38.33;100814.50;4864948;29;45486;-63
2022/07/28 02:31:46;;;;;;;;;1.00;1.00;;;;;21.17;38.40;100843.75;4849420;29;46713;-62
2022/07/28 02:34:12;;;;;;;;;1.00;1.00;;;;;21.18;38.33;100841.81;4849749;29;45554;-62
2022/07/28 02:36:43;;;;;;;;;1.00;1.00;;;;;21.04;38.43;100814.50;4865139;29;45420;-61
2022/07/28 02:39:14;;;;;;;;;1.20;1.20;;;;;21.20;38.40;100845.16;4865907;29;45302;-62
2022/07/28 02:41:41;;;;;;;;;3.00;1.60;;;;;21.26;38.48;100844.88;4864443;29;46653;-63
2022/07/28 02:44:10;;;;;;;;;0.80;0.80;;;;;21.14;38.05;100822.03;4849170;29;45294;-61
2022/07/28 02:46:37;;;;;;;;;1.00;1.00;;;;;21.26;38.30;100833.72;4865112;29;45400;-62
2022/07/28 02:49:09;;;;;;;;;3.00;2.00;;;;;21.26;38.29;100838.44;4864974;29;45518;-62
2022/07/28 02:51:35;;;;;;;;;1.00;1.00;;;;;21.16;38.50;100830.09;4849099;29;45347;-62
2022/07/28 02:54:00;;;;;;;;;2.00;2.00;;;;;21.06;38.43;100805.81;4848547;29;45473;-61
2022/07/28 02:56:26;;;;;;;;;1.75;1.75;;;;;21.18;38.42;100831.47;4864132;29;45358;-62
2022/07/28 02:58:51;;;;;;;;;2.50;2.00;;;;;21.22;38.08;100837.34;4865014;29;45433;-63
2022/07/28 03:01:17;;;;;;;;;2.00;2.00;;;;;21.18;38.43;100823.09;4863110;29;46137;-62
2022/07/28 03:03:44;;;;;;;;;1.00;1.00;;;;;21.28;38.47;100836.22;4848724;29;45313;-63
2022/07/28 03:06:09;;;;;;;;;3.00;2.00;;;;;21.21;38.58;100825.34;4823554;29;45560;-63
2022/07/28 03:08:34;;;;;;;;;2.00;2.00;;;;;21.24;38.21;100844.31;4825916;29;45445;-63
2022/07/28 03:11:10;;;;;;;;;2.00;2.00;;;;;21.10;38.69;100835.69;4827896;29;45518;-60
2022/07/28 03:13:36;;;;;;;;;2.00;2.00;;;;;21.08;38.86;100831.50;4845997;29;45760;-62
2022/07/28 03:16:02;;;;;;;;;2.00;2.00;;;;;20.77;39.11;100807.25;4862488;29;45140;-63
2022/07/28 03:18:28;;;;;;;;;2.00;2.00;;;;;20.99;39.10;100839.59;4852389;29;45404;-62
2022/07/28 03:20:56;;;;;;;;;2.00;2.00;;;;;20.96;38.88;100838.22;4862177;29;45375;-62
2022/07/28 03:23:42;;;;;;;;;3.20;1.80;;;;;20.94;39.15;100842.41;4860930;29;45380;-62
2022/07/28 03:26:26;;;;;;;;;4.20;3.00;;;;;20.77;39.08;100814.75;4862186;29;45408;-62
2022/07/28 03:28:52;;;;;;;;;1.80;1.80;;;;;20.99;39.13;100840.44;4845921;29;45384;-63
2022/07/28 03:31:17;;;;;;;;;1.00;1.00;;;;;20.98;38.73;100815.63;4845298;29;46726;-62
2022/07/28 03:33:43;;;;;;;;;1.00;1.00;;;;;20.94;38.75;100804.19;4845622;29;45884;-61
2022/07/28 03:36:11;;;;;;;;;1.00;1.00;;;;;20.86;38.76;100810.31;4845873;29;45448;-62
2022/07/28 03:38:42;;;;;;;;;2.20;2.20;;;;;20.97;39.30;100833.47;4846154;29;45664;-62
2022/07/28 03:41:08;;;;;;;;;1.80;1.80;;;;;20.88;39.54;100840.72;4845548;29;46543;-62
2022/07/28 03:43:33;;;;;;;;;1.50;1.50;;;;;20.82;39.11;100820.34;4845459;29;45462;-60
2022/07/28 03:45:59;;;;;;;;;1.75;1.75;;;;;20.80;39.23;100837.34;4845506;29;45486;-62
2022/07/28 03:48:29;;;;;;;;;2.25;1.25;;;;;20.70;39.33;100801.09;4862426;29;45639;-62
2022/07/28 03:50:54;;;;;;;;;3.80;2.80;;;;;20.83;39.56;100813.66;4845403;29;46841;-63
2022/07/28 03:53:22;;;;;;;;;1.50;1.50;;;;;20.78;38.76;100810.84;4861972;29;45221;-63
2022/07/28 03:55:49;;;;;;;;;2.20;2.20;;;;;20.80;39.42;100814.19;4845133;29;45459;-62
2022/07/28 03:58:18;;;;;;;;;3.00;1.60;;;;;20.82;39.65;100823.13;4862429;29;45458;-63
2022/07/28 04:00:44;;;;;;;;;2.00;2.00;;;;;20.81;39.31;100835.41;4844782;29;45623;-61
2022/07/28 04:03:09;;;;;;;;;1.75;1.75;;;;;20.78;39.45;100835.94;4861862;29;45428;-61
2022/07/28 04:05:35;;;;;;;;;2.50;2.50;;;;;20.76;39.65;100841.78;4845074;29;45457;-61
2022/07/28 04:08:00;;;;;;;;;2.50;2.50;;;;;20.74;39.77;100841.25;4844852;29;45879;-61
2022/07/28 04:10:26;;;;;;;;;2.75;2.75;;;;;20.72;39.89;100835.94;4862069;29;45553;-62
2022/07/28 04:12:53;;;;;;;;;3.25;2.75;;;;;20.80;39.40;100844.88;4861621;29;45370;-62
2022/07/28 04:15:19;;;;;;;;;3.40;2.60;;;;;20.80;39.67;100833.72;4861924;29;45782;-62
2022/07/28 04:17:46;;;;;;;;;2.75;2.75;;;;;20.88;39.36;100837.94;4865372;29;45382;-62
2022/07/28 04:20:12;;;;;;;;;1.80;1.80;;;;;20.77;39.53;100837.91;4880457;29;46152;-60
2022/07/28 04:22:37;;;;;;;;;3.25;3.25;;;;;20.80;39.48;100836.50;4838364;29;45721;-61
2022/07/28 04:25:04;;;;;;;;;3.00;3.00;;;;;20.74;39.68;100824.53;4880356;29;45340;-60
2022/07/28 04:27:29;;;;;;;;;3.20;2.60;;;;;20.58;39.84;100821.72;4848301;29;45258;-61
2022/07/28 04:29:55;;;;;;;;;1.50;1.50;;;;;20.61;39.89;100825.06;4863337;29;46410;-61
2022/07/28 04:32:20;;;;;;;;;2.75;2.75;;;;;20.58;40.05;100823.69;4863151;29;45522;-62
2022/07/28 04:34:46;;;;;;;;;1.00;1.00;;;;;20.52;39.96;100817.28;4880398;29;45275;-62
2022/07/28 04:37:13;;;;;;;;;3.50;3.50;;;;;20.69;39.82;100821.72;4880492;29;45401;-62
2022/07/28 04:39:39;;;;;;;;;2.80;2.80;;;;;20.62;40.04;100815.59;4880277;29;46217;-62
2022/07/28 04:42:05;;;;;;;;;3.00;3.00;;;;;20.70;39.93;100818.66;4847868;29;45581;-61
2022/07/28 04:44:30;;;;;;;;;3.25;3.00;;;;;20.79;39.80;100823.69;4880506;29;45240;-61
2022/07/28 04:46:56;;;;;;;;;3.75;3.75;;;;;20.80;40.11;100816.97;4863668;29;45445;-62
2022/07/28 04:49:21;;;;;;;;;3.00;3.00;;;;;20.62;40.01;100791.34;4880140;29;45759;-61
2022/07/28 04:51:49;;;;;;;;;2.25;1.50;;;;;20.66;40.72;100823.09;4880019;29;45339;-61
2022/07/28 04:54:15;;;;;;;;;3.20;3.20;;;;;20.77;40.20;100825.91;4880219;29;45332;-61
2022/07/28 04:56:40;;;;;;;;;2.80;1.80;;;;;20.78;40.21;100822.00;4863387;29;45451;-60
2022/07/28 04:59:06;;;;;;;;;2.75;2.75;;;;;20.76;39.96;100824.25;4880219;29;46513;-61
2022/07/28 05:01:31;;;;;;;;;2.25;2.25;;;;;20.59;40.16;100806.69;4880010;29;45386;-61
2022/07/28 05:03:57;;;;;;;;;2.75;2.75;;;;;20.72;40.18;100823.97;4863295;29;45334;-61
2022/07/28 05:06:23;;;;;;;;;2.00;2.00;;;;;20.67;40.26;100807.22;4862948;29;45560;-61
2022/07/28 05:08:49;;;;;;;;;3.25;3.25;;;;;20.74;40.61;100818.94;4879871;29;45678;-61
2022/07/28 05:11:15;;;;;;;;;4.80;3.20;;;;;20.71;40.23;100820.34;4847679;29;45439;-61
2022/07/28 05:13:41;;;;;;;;;4.40;4.40;;;;;20.63;40.43;100814.47;4862719;29;45430;-59
2022/07/28 05:16:06;;;;;;;;;3.00;3.00;;;;;20.51;40.20;100809.19;4862784;29;45365;-61
2022/07/28 05:18:32;;;;;;;;;3.50;3.50;;;;;20.67;40.79;100827.59;4862664;29;45381;-62
2022/07/28 05:20:57;;;;;;;;;4.25;3.75;;;;;20.69;40.53;100832.88;4879338;29;45252;-60
2022/07/28 05:23:23;;;;;;;;;5.00;4.00;;;;;20.62;40.62;100819.22;4868105;29;45440;-61
2022/07/28 05:25:48;;;;;;;;;4.00;3.00;;;;;20.72;40.45;100822.00;4864762;29;45845;-61
2022/07/28 05:28:13;;;;;;;;;2.75;2.75;;;;;20.80;40.39;100828.13;4864479;29;46210;-62
2022/07/28 05:30:39;;;;;;;;;3.25;3.25;;;;;20.82;39.97;100828.72;4882237;29;45299;-60
2022/07/28 05:33:04;;;;;;;;;2.50;2.50;;;;;20.87;40.14;100819.53;4881137;29;45397;-61
2022/07/28 05:35:30;;;;;;;;;4.25;3.25;;;;;20.89;39.93;100820.94;4865862;29;45636;-61
2022/07/28 05:37:55;;;;;;;;;5.00;4.00;;;;;20.88;40.45;100824.84;4865732;29;46509;-61
2022/07/28 05:40:21;;;;;;;;;4.50;4.50;;;;;20.74;40.71;100824.53;4882436;29;45410;-63
2022/07/28 05:42:46;;;;;;;;;3.00;2.25;;;;;20.41;40.65;100788.56;4865561;29;45427;-61
2022/07/28 05:45:12;;;;;;;;;4.00;4.00;;;;;20.55;40.90;100824.25;4865919;29;45407;-61
2022/07/28 05:47:46;;;;;;;;;4.75;3.25;;;;;20.58;40.81;100818.94;4865264;29;46503;-61
2022/07/28 05:50:15;;;;;;;;;3.80;3.80;;;;;20.65;40.80;100815.03;4865675;29;45514;-60
2022/07/28 05:52:41;;;;;;;;;2.80;2.80;;;;;20.51;40.67;100796.09;4865736;29;45265;-61
2022/07/28 05:55:07;;;;;;;;;4.00;2.25;;;;;20.73;40.55;100814.47;4850214;29;45518;-60
2022/07/28 05:57:32;;;;;;;;;4.50;4.50;;;;;20.86;40.04;100824.25;4865421;29;46430;-61
2022/07/28 05:59:58;;;;;;;;;5.00;3.00;;;;;20.66;40.47;100786.88;4882167;29;45280;-60
2022/07/28 06:02:23;;;;;;;;;3.25;3.25;;;;;20.89;40.39;100818.13;4882166;29;45379;-61
2022/07/28 06:04:49;;;;;;;;;3.00;3.00;;;;;20.82;40.52;100829.53;4864634;29;45337;-61
2022/07/28 06:07:14;;;;;;;;;5.00;3.25;;;;;20.83;40.51;100822.84;4881689;29;45393;-61
2022/07/28 06:09:40;;;;;;;;;4.00;4.00;;;;;20.77;40.60;100828.69;4882256;29;45288;-61
2022/07/28 06:12:05;;;;;;;;;3.75;3.75;;;;;20.87;40.28;100828.75;4865842;29;45206;-61
2022/07/28 06:14:31;;;;;;;;;3.75;3.75;;;;;20.93;40.29;100819.25;4866021;29;45462;-61
2022/07/28 06:16:56;;;;;;;;;4.25;3.00;;;;;20.96;40.62;100823.41;4865437;29;45440;-61
2022/07/28 06:19:22;;;;;;;;;2.75;2.75;;;;;21.03;40.19;100832.34;4881885;29;45308;-60
2022/07/28 06:21:47;;;;;;;;;3.00;3.00;;;;;21.07;39.72;100825.09;4882260;29;45483;-61
2022/07/28 06:24:13;;;;;;;;;5.00;3.75;;;;;20.93;40.17;100796.09;4882682;29;45299;-61
2022/07/28 06:26:38;;;;;;;;;4.00;4.00;;;;;21.05;40.14;100812.53;4865217;29;46040;-61
2022/07/28 06:29:04;;;;;;;;;5.50;3.00;;;;;21.03;40.24;100817.56;4882281;29;45305;-63
2022/07/28 06:31:30;;;;;;;;;5.40;4.60;;;;;21.05;40.44;100826.47;4849657;29;45439;-61
2022/07/28 06:33:55;;;;;;;;;5.25;3.75;;;;;21.03;40.20;100828.72;4881900;29;45390;-62
2022/07/28 06:36:21;;;;;;;;;5.25;3.75;;;;;20.97;40.57;100819.53;4864906;29;46716;-59
2022/07/28 06:38:46;;;;;;;;;4.50;4.25;;;;;21.06;40.01;100829.00;4881813;29;45347;-60
2022/07/28 06:41:12;;;;;;;;;3.75;3.00;;;;;21.03;40.37;100837.09;4882183;29;45411;-61
2022/07/28 06:43:38;;;;;;;;;3.75;2.75;;;;;21.12;40.11;100827.03;4857766;29;45587;-60
2022/07/28 06:46:03;;;;;;;;;2.80;2.60;;;;;21.24;39.81;100829.53;4845557;29;45990;-62
2022/07/28 06:48:29;;;;;;;;;8.50;6.00;;;;;21.17;40.03;100807.50;4863189;29;45785;-62
2022/07/28 06:50:57;;;;;;;;;4.00;2.50;;;;;21.17;40.21;100824.22;4863480;29;45449;-62
2022/07/28 06:53:22;;;;;;;;;3.60;3.20;;;;;21.19;40.37;100830.34;4863134;29;45400;-62
2022/07/28 06:55:48;;;;;;;;;4.50;4.00;;;;;21.08;40.23;100800.81;4846223;29;45545;-61
2022/07/28 06:58:13;;;;;;;;;3.00;3.00;;;;;21.23;40.04;100823.09;4846266;29;45395;-62
2022/07/28 07:00:39;;;;;;;;;4.25;4.00;;;;;21.19;40.06;100801.63;4846267;29;45431;-62
2022/07/28 07:03:05;;;;;;;;;4.00;4.00;;;;;21.26;39.76;100827.28;4863400;29;45573;-60
2022/07/28 07:05:30;;;;;;;;;5.25;5.25;;;;;21.09;39.89;100810.84;4846466;29;46738;-62
2022/07/28 07:07:56;;;;;;;;;5.00;3.50;;;;;21.24;39.77;100843.50;4862178;29;45463;-62
2022/07/28 07:10:22;;;;;;;;;5.50;4.75;;;;;21.18;40.14;100839.03;4845684;29;45350;-60
2022/07/28 07:12:47;;;;;;;;;5.25;5.25;;;;;21.07;40.01;100822.28;4862689;29;45278;-61
2022/07/28 07:15:13;;;;;;;;;5.50;5.50;;;;;21.07;40.13;100821.47;4862440;29;45992;-60
2022/07/28 07:17:38;;;;;;;;;4.75;4.50;;;;;21.34;39.60;100837.06;4845747;29;45292;-62
2022/07/28 07:20:05;;;;;;;;;5.00;5.00;;;;;21.48;39.27;100834.47;4874429;29;45302;-61
2022/07/28 07:22:31;;;;;;;;;6.00;5.00;;;;;21.46;39.68;100837.56;4864285;29;45399;-61
2022/07/28 07:24:56;;;;;;;;;5.00;5.00;;;;;21.47;39.63;100835.59;4864073;29;46524;-61
2022/07/28 07:27:22;;;;;;;;;3.75;3.75;;;;;21.32;39.75;100820.56;4864069;29;45409;-60
2022/07/28 07:29:47;;;;;;;;;5.50;5.00;;;;;21.47;39.79;100844.84;4864373;29;45447;-61
2022/07/28 07:32:13;;;;;;;;;4.00;4.00;;;;;21.52;39.76;100842.00;4864424;29;45555;-61
2022/07/28 07:34:38;;;;;;;;;5.00;4.00;;;;;21.55;39.52;100828.63;4880546;29;45432;-61
2022/07/28 07:37:05;;;;;;;;;7.00;5.25;;;;;21.67;39.20;100840.31;4863988;29;45401;-61
2022/07/28 07:39:31;;;;;;;;;5.60;5.60;;;;;21.50;39.22;100813.53;4880944;29;45422;-61
2022/07/28 07:41:57;;;;;;;;;5.80;5.80;;;;;21.62;39.10;100837.53;4864237;29;45662;-61
2022/07/28 07:44:22;;;;;;;;;4.50;4.50;;;;;21.60;39.23;100840.59;4860652;29;45629;-61
2022/07/28 07:46:48;;;;;;;;;6.00;6.00;;;;;21.70;39.40;100836.97;4863527;29;45375;-61
2022/07/28 07:49:15;;;;;;;;;4.00;4.00;;;;;21.80;38.88;100834.13;4880917;29;45712;-61
2022/07/28 07:51:41;;;;;;;;;2.40;2.40;;;;;21.84;38.98;100844.72;4881065;29;45618;-61
2022/07/28 07:54:06;;;;;;;;;6.25;5.50;;;;;21.86;39.12;100848.06;4880394;29;45694;-61
2022/07/28 07:56:32;;;;;;;;;5.25;4.00;;;;;21.95;39.08;100840.78;4880750;29;45406;-61
2022/07/28 07:58:57;;;;;;;;;7.50;4.25;;;;;22.09;38.82;100842.94;4863703;29;45458;-61
2022/07/28 08:01:23;;;;;;;;;7.25;7.25;;;;;22.13;38.75;100838.41;4880723;29;45739;-61
2022/07/28 08:03:49;;;;;;;;;3.75;3.75;;;;;22.21;38.64;100835.03;4863129;29;45578;-61
2022/07/28 08:06:14;;;;;;;;;6.25;5.00;;;;;22.28;38.55;100835.56;4880392;29;45486;-60
2022/07/28 08:08:41;;;;;;;;;10.50;8.00;;;;;22.37;38.32;100832.13;4880463;29;45465;-61
2022/07/28 08:11:06;;;;;;;;;7.00;5.80;;;;;22.41;38.09;100827.66;4880852;29;45321;-60
2022/07/28 08:13:32;;;;;;;;;4.75;4.50;;;;;22.51;38.41;100830.38;4863686;29;45630;-60
2022/07/28 08:15:58;;;;;;;;;6.75;5.75;;;;;22.53;37.89;100832.91;4880502;29;45391;-60
2022/07/28 08:18:24;;;;;;;;;5.60;5.60;;;;;22.27;38.33;100797.56;4863769;29;45377;-60
2022/07/28 08:20:49;;;;;;;;;8.00;5.75;;;;;22.27;38.27;100794.75;4863865;29;45530;-61
2022/07/28 08:23:14;;;;;;;;;7.00;5.00;;;;;22.54;38.31;100821.44;4879951;29;45766;-60
2022/07/28 08:25:40;;;;;;;;;9.75;7.75;;;;;22.64;37.68;100826.13;4863693;29;45442;-60
2022/07/28 08:28:05;;;;;;;;;6.00;5.50;;;;;22.72;37.71;100830.22;4880604;29;45346;-60
2022/07/28 08:30:31;;;;;;;;;10.00;7.25;;;;;22.81;37.41;100827.63;4880778;29;45632;-60
2022/07/28 08:32:56;;;;;;;;;6.75;6.75;;;;;22.86;37.93;100822.84;4879982;29;46086;-60
2022/07/28 08:35:22;;;;;;;;;9.00;9.00;;;;;22.77;37.19;100801.41;4879991;29;45455;-60
2022/07/28 08:37:47;;;;;;;;;7.00;6.75;;;;;22.91;37.27;100819.16;4863804;29;45366;-62
2022/07/28 08:40:16;;;;;;;;;7.50;7.50;;;;;23.00;37.00;100822.16;4842002;29;45460;-63
2022/07/28 08:43:13;;;;;;;;;9.60;6.80;;;;;23.06;36.91;100825.75;4864700;29;45892;-64
2022/07/28 08:45:39;;;;;;;;;5.20;5.20;;;;;23.09;36.91;100825.97;4813259;29;45589;-63
2022/07/28 08:48:05;;;;;;;;;7.00;5.75;;;;;23.12;36.92;100828.19;4858967;29;45795;-64
2022/07/28 08:50:30;;;;;;;;;5.40;5.00;;;;;23.18;36.85;100823.38;4859463;29;45737;-66
2022/07/28 08:52:56;;;;;;;;;7.00;6.00;;;;;22.99;36.58;100779.34;4843372;29;46732;-64
2022/07/28 08:55:25;;;;;;;;;4.25;4.00;;;;;23.24;36.70;100805.41;4842043;29;45563;-64
2022/07/28 08:57:53;;;;;;;;;7.60;6.20;;;;;23.27;36.37;100804.78;4843680;29;45546;-65
2022/07/28 09:00:19;;;;;;;;;6.80;5.00;;;;;23.34;36.21;100807.28;4846509;29;45784;-64
2022/07/28 09:02:45;;;;;;;;;6.60;6.60;;;;;23.43;36.14;100813.06;4862347;29;45557;-62
2022/07/28 09:05:10;;;;;;;;;7.50;6.00;;;;;23.53;36.32;100821.34;4846390;29;45442;-64
2022/07/28 09:07:36;;;;;;;;;9.75;7.00;;;;;23.55;35.88;100815.44;4845238;29;45487;-64
2022/07/28 09:10:07;;;;;;;;;11.40;7.80;;;;;23.57;35.79;100809.56;4879258;29;45859;-63
2022/07/28 09:12:35;;;;;;;;;6.60;4.00;;;;;23.46;36.10;100792.88;4859341;29;46910;-63
2022/07/28 09:15:02;;;;;;;;;8.20;6.40;;;;;23.58;35.95;100806.44;4870615;29;45878;-62
2022/07/28 09:17:28;;;;;;;;;4.00;4.00;;;;;23.66;35.92;100808.59;4876723;29;45461;-63
2022/07/28 09:19:53;;;;;;;;;6.75;5.25;;;;;23.67;35.93;100813.06;4859058;29;45579;-60
2022/07/28 09:22:19;;;;;;;;;6.50;5.25;;;;;23.76;35.65;100820.78;4861191;29;45930;-61
2022/07/28 09:24:45;;;;;;;;;6.25;4.50;;;;;23.77;35.42;100820.50;4880616;29;45682;-57
2022/07/28 09:27:12;;;;;;;;;7.20;5.00;;;;;23.78;35.35;100818.53;4864499;29;45391;-59
2022/07/28 09:29:39;;;;;;;;;7.60;6.00;;;;;23.60;35.84;100784.59;4865636;29;45671;-63
2022/07/28 09:32:05;;;;;;;;;6.40;6.40;;;;;23.61;35.59;100780.66;4845776;29;45630;-61
2022/07/28 09:34:43;;;;;;;;;4.20;4.20;;;;;23.95;35.18;100815.22;4862662;29;45383;-60
2022/07/28 09:37:16;;;;;;;;;6.20;4.20;;;;;24.06;35.83;100804.72;4863420;29;45406;-59
2022/07/28 09:39:42;;;;;;;;;6.40;4.80;;;;;24.10;34.63;100797.38;4863340;29;45497;-59
2022/07/28 09:42:07;;;;;;;;;6.00;6.00;;;;;24.12;34.72;100803.50;4845702;29;45416;-60
2022/07/28 09:44:33;;;;;;;;;6.00;5.00;;;;;24.18;35.03;100804.28;4863200;29;45513;-61
2022/07/28 09:46:58;;;;;;;;;3.50;3.50;;;;;24.17;34.56;100803.44;4863242;29;45391;-62
2022/07/28 09:49:44;;;;;;;;;6.00;6.00;;;;;24.23;34.27;100796.63;4862690;29;45410;-62
2022/07/28 09:52:09;;;;;;;;;6.80;6.00;;;;;24.27;34.69;100785.63;4862188;29;45659;-60
2022/07/28 09:54:35;;;;;;;;;6.00;4.25;;;;;24.43;34.85;100802.22;4862891;29;45590;-64
2022/07/28 09:57:00;;;;;;;;;3.75;2.75;;;;;24.48;34.29;100788.09;4845712;29;45367;-59
2022/07/28 09:59:38;;;;;;;;;6.50;6.00;;;;;24.67;33.63;100788.09;4852517;29;45508;-62
2022/07/28 10:02:04;;;;;;;;;0.20;0.20;;;;;24.64;33.29;100767.09;4856443;29;45475;-60
2022/07/28 10:04:37;;;;;;;;;4.00;4.00;;;;;24.85;33.63;100783.59;4864465;29;45551;-62
2022/07/28 10:07:18;;;;;;;;;4.80;4.80;;;;;24.88;33.36;100782.94;4880400;29;45422;-62
2022/07/28 10:09:57;;;;;;;;;4.40;4.40;;;;;24.94;33.05;100778.09;4866751;29;45701;-62
2022/07/28 10:12:24;;;;;;;;;5.00;4.00;;;;;25.01;32.80;100781.31;4876794;29;47057;-61
2022/07/28 10:14:50;;;;;;;;;7.40;6.00;;;;;25.06;32.64;100788.00;4899185;29;45419;-60
2022/07/28 10:17:23;;;;;;;;;3.60;3.40;;;;;25.12;32.83;100790.38;4900999;29;45318;-63
2022/07/28 10:19:48;;;;;;;;;3.00;3.00;;;;;25.17;33.12;100786.63;4875854;29;45560;-61
2022/07/28 10:22:15;;;;;;;;;5.25;4.50;;;;;25.09;32.36;100781.75;4881693;29;45579;-61
2022/07/28 10:24:40;;;;;;;;;5.20;3.00;;;;;25.17;32.31;100773.44;4849326;29;45361;-61
2022/07/28 10:27:06;;;;;;;;;4.25;3.25;;;;;25.21;32.33;100773.66;4840407;29;45392;-63
2022/07/28 10:29:31;;;;;;;;;7.00;4.75;;;;;25.19;32.56;100761.91;4875921;29;46029;-64
2022/07/28 10:31:57;;;;;;;;;6.00;3.75;;;;;25.16;31.97;100748.47;4858152;29;46461;-63
2022/07/28 10:34:45;;;;;;;;;5.00;4.00;;;;;25.23;32.05;100753.69;4856846;29;45892;-64
2022/07/28 10:37:16;;;;;;;;;3.80;3.80;;;;;25.30;31.97;100760.53;4858805;29;45447;-65
2022/07/28 10:39:43;;;;;;;;;4.80;4.20;;;;;25.38;31.61;100767.41;4844240;29;45954;-62
2022/07/28 10:42:12;;;;;;;;;4.00;3.00;;;;;25.48;31.22;100765.53;4858481;29;45787;-63
2022/07/28 10:44:38;;;;;;;;;3.20;3.20;;;;;25.41;31.24;100754.72;4858690;29;45764;-63
2022/07/28 10:47:08;;;;;;;;;2.00;2.00;;;;;25.47;30.77;100767.53;4856975;29;45866;-62
2022/07/28 10:49:33;;;;;;;;;2.80;2.80;;;;;25.55;30.48;100766.81;4843692;29;45621;-66
2022/07/28 10:51:59;;;;;;;;;3.00;3.00;;;;;25.54;30.44;100773.56;4842734;29;46415;-64
2022/07/28 10:54:26;;;;;;;;;5.50;4.00;;;;;25.55;30.70;100768.78;4858893;29;45558;-63
2022/07/28 10:56:56;;;;;;;;;3.00;3.00;;;;;25.49;30.48;100759.59;4858647;29;45499;-64
2022/07/28 10:59:43;;;;;;;;;4.00;2.60;;;;;25.55;30.60;100766.81;4838775;29;45748;-65
2022/07/28 11:02:27;;;;;;;;;0.80;0.80;;;;;25.57;30.39;100764.50;4856476;29;45851;-65
2022/07/28 11:04:54;;;;;;;;;2.80;1.60;;;;;25.58;30.48;100763.38;4835422;29;45474;-64
2022/07/28 11:07:21;;;;;;;;;2.00;2.00;;;;;25.66;30.77;100767.41;4827300;29;45438;-65
2022/07/28 11:09:46;;;;;;;;;2.80;2.80;;;;;25.71;30.56;100767.31;4859376;29;45622;-64
2022/07/28 11:12:14;;;;;;;;;3.25;3.00;;;;;25.73;30.71;100761.38;4856061;29;46648;-63
2022/07/28 11:14:40;;;;;;;;;5.60;3.60;;;;;25.75;30.65;100766.66;4875664;29;45419;-63
2022/07/28 11:17:05;;;;;;;;;2.60;2.60;;;;;25.82;30.20;100762.28;4875786;29;45375;-64
2022/07/28 11:19:43;;;;;;;;;3.00;3.00;;;;;25.88;30.01;100762.19;4875913;29;45575;-62
2022/07/28 11:22:16;;;;;;;;;2.00;2.00;;;;;25.96;30.12;100767.03;4858981;29;45908;-64
2022/07/28 11:25:00;;;;;;;;;3.00;3.00;;;;;26.04;30.10;100766.28;4874017;29;45719;-64
2022/07/28 11:27:48;;;;;;;;;1.60;1.60;;;;;26.12;29.96;100768.38;4866638;29;45775;-63